KLM61B EHAM-EGPF
Flight info
| Callsign | KLM61B |
|---|---|
| Flight time | N/A |
| Altitude | 34000 |
| Route | BERGI L602 SUPUR P1 GODOS DCT ROXAT DCT BAZNA DCT ANMAZ DCT EWOKE DCT AGPED |
| Aircraft | B739/M-SDE2E3FGHIRWXY/LB1 |
Departure
| Time | N/A |
|---|---|
| Airport | Amsterdam Airport Schiphol (EHAM) |
Arrival
| Time | 2026-05-07 11:17 |
|---|---|
| Airport | Glasgow Airport (EGPF) |
| Time | Latitude | Longitude | Altitude | Speed | Heading |
|---|---|---|---|---|---|
| 2026-05-07 10:51 | 54.74712 | -1.41681 | 26069 ft | 449 kts | 320° |
| 2026-05-07 10:51 | 54.77160 | -1.45023 | 26062 ft | 448 kts | 320° |
| 2026-05-07 10:51 | 54.79592 | -1.48377 | 26050 ft | 447 kts | 320° |
| 2026-05-07 10:52 | 54.82015 | -1.51756 | 26046 ft | 447 kts | 319° |
| 2026-05-07 10:52 | 54.84447 | -1.55182 | 26039 ft | 453 kts | 319° |
| 2026-05-07 10:52 | 54.86902 | -1.58662 | 26039 ft | 458 kts | 319° |
| 2026-05-07 10:52 | 54.89390 | -1.62199 | 26033 ft | 462 kts | 319° |
| 2026-05-07 10:53 | 54.91871 | -1.65735 | 26023 ft | 462 kts | 319° |
| 2026-05-07 10:53 | 54.94343 | -1.69258 | 26006 ft | 454 kts | 318° |
| 2026-05-07 10:53 | 54.96748 | -1.72690 | 26004 ft | 439 kts | 319° |
| 2026-05-07 10:53 | 54.99088 | -1.76035 | 26013 ft | 433 kts | 318° |
| 2026-05-07 10:54 | 55.01412 | -1.79367 | 26030 ft | 433 kts | 318° |
| 2026-05-07 10:54 | 55.03732 | -1.82701 | 26031 ft | 433 kts | 318° |
| 2026-05-07 10:54 | 55.06058 | -1.86044 | 26030 ft | 434 kts | 318° |
| 2026-05-07 10:54 | 55.08393 | -1.89406 | 26032 ft | 434 kts | 318° |
| 2026-05-07 10:55 | 55.10546 | -1.93074 | 26017 ft | 431 kts | 307° |
| 2026-05-07 10:55 | 55.12230 | -1.97368 | 26023 ft | 428 kts | 297° |
| 2026-05-07 10:55 | 55.13629 | -2.01964 | 26029 ft | 428 kts | 296° |
| 2026-05-07 10:55 | 55.15007 | -2.06582 | 26014 ft | 428 kts | 295° |
| 2026-05-07 10:56 | 55.16365 | -2.11140 | 26014 ft | 429 kts | 296° |
| 2026-05-07 10:56 | 55.17748 | -2.15759 | 26007 ft | 429 kts | 296° |
| 2026-05-07 10:56 | 55.19139 | -2.20377 | 26009 ft | 429 kts | 296° |
| 2026-05-07 10:56 | 55.20532 | -2.24986 | 25880 ft | 429 kts | 296° |
| 2026-05-07 10:57 | 55.21932 | -2.29614 | 25380 ft | 430 kts | 296° |
| 2026-05-07 10:57 | 55.23331 | -2.34235 | 24843 ft | 426 kts | 296° |
| 2026-05-07 10:57 | 55.24715 | -2.38807 | 24326 ft | 422 kts | 295° |
| 2026-05-07 10:57 | 55.26083 | -2.43338 | 23793 ft | 417 kts | 295° |
| 2026-05-07 10:58 | 55.27431 | -2.47812 | 23196 ft | 413 kts | 295° |
| 2026-05-07 10:58 | 55.28764 | -2.52244 | 22617 ft | 408 kts | 295° |
| 2026-05-07 10:58 | 55.30075 | -2.56611 | 22092 ft | 402 kts | 295° |
| 2026-05-07 10:58 | 55.31370 | -2.60934 | 21586 ft | 396 kts | 295° |
| 2026-05-07 10:59 | 55.32642 | -2.65189 | 21069 ft | 391 kts | 295° |
| 2026-05-07 10:59 | 55.33899 | -2.69400 | 20571 ft | 386 kts | 295° |
| 2026-05-07 10:59 | 55.34722 | -2.72163 | 20239 ft | 384 kts | 295° |
| 2026-05-07 10:59 | 55.35946 | -2.76280 | 20052 ft | 378 kts | 295° |
| 2026-05-07 11:00 | 55.37170 | -2.80405 | 20032 ft | 384 kts | 294° |
| 2026-05-07 11:00 | 55.38816 | -2.85971 | 20000 ft | 390 kts | 295° |
| 2026-05-07 11:00 | 55.40070 | -2.90214 | 19984 ft | 390 kts | 295° |
| 2026-05-07 11:00 | 55.40915 | -2.93072 | 19978 ft | 390 kts | 295° |
| 2026-05-07 11:01 | 55.42166 | -2.97314 | 19981 ft | 389 kts | 295° |
| 2026-05-07 11:01 | 55.43397 | -3.01492 | 19933 ft | 379 kts | 295° |
| 2026-05-07 11:01 | 55.44586 | -3.05528 | 19824 ft | 364 kts | 295° |
| 2026-05-07 11:01 | 55.45714 | -3.09368 | 19680 ft | 352 kts | 295° |
| 2026-05-07 11:02 | 55.46840 | -3.13211 | 19046 ft | 355 kts | 295° |
| 2026-05-07 11:02 | 55.47986 | -3.17137 | 18504 ft | 355 kts | 295° |
| 2026-05-07 11:02 | 55.49093 | -3.20930 | 18138 ft | 349 kts | 294° |
| 2026-05-07 11:02 | 55.50189 | -3.24691 | 17830 ft | 339 kts | 294° |
| 2026-05-07 11:03 | 55.51271 | -3.28409 | 17146 ft | 343 kts | 294° |
| 2026-05-07 11:03 | 55.52341 | -3.32094 | 16871 ft | 328 kts | 294° |
| 2026-05-07 11:03 | 55.53353 | -3.35573 | 16713 ft | 309 kts | 293° |
| 2026-05-07 11:03 | 55.54318 | -3.38898 | 16207 ft | 303 kts | 293° |
| 2026-05-07 11:04 | 55.55274 | -3.42211 | 15548 ft | 303 kts | 293° |
| 2026-05-07 11:04 | 55.56240 | -3.45519 | 14996 ft | 300 kts | 293° |
| 2026-05-07 11:04 | 55.57199 | -3.48777 | 14383 ft | 299 kts | 292° |
| 2026-05-07 11:04 | 55.58131 | -3.52069 | 13757 ft | 300 kts | 291° |
| 2026-05-07 11:05 | 55.59062 | -3.55351 | 13178 ft | 297 kts | 291° |
| 2026-05-07 11:05 | 55.59988 | -3.58590 | 12687 ft | 292 kts | 291° |
| 2026-05-07 11:05 | 55.60901 | -3.61774 | 12171 ft | 288 kts | 291° |
| 2026-05-07 11:05 | 55.61801 | -3.64920 | 11640 ft | 285 kts | 291° |
| 2026-05-07 11:06 | 55.62692 | -3.68034 | 11130 ft | 282 kts | 291° |
| 2026-05-07 11:06 | 55.63573 | -3.71123 | 10683 ft | 282 kts | 291° |
| 2026-05-07 11:06 | 55.64452 | -3.74205 | 10408 ft | 278 kts | 291° |
| 2026-05-07 11:06 | 55.65319 | -3.77248 | 10118 ft | 275 kts | 291° |
| 2026-05-07 11:07 | 55.66176 | -3.80261 | 9816 ft | 273 kts | 291° |
| 2026-05-07 11:07 | 55.67016 | -3.83218 | 9468 ft | 271 kts | 291° |
| 2026-05-07 11:07 | 55.67862 | -3.86201 | 9090 ft | 270 kts | 291° |
| 2026-05-07 11:07 | 55.68717 | -3.89219 | 8721 ft | 270 kts | 291° |
| 2026-05-07 11:08 | 55.69681 | -3.92014 | 8374 ft | 275 kts | 308° |
| 2026-05-07 11:08 | 55.71295 | -3.93959 | 8006 ft | 288 kts | 336° |
| 2026-05-07 11:08 | 55.73256 | -3.94925 | 7950 ft | 292 kts | 343° |
| 2026-05-07 11:08 | 55.75260 | -3.95737 | 7652 ft | 298 kts | 343° |
| 2026-05-07 11:09 | 55.77292 | -3.96537 | 7362 ft | 298 kts | 344° |
| 2026-05-07 11:09 | 55.79281 | -3.97308 | 7057 ft | 296 kts | 344° |
| 2026-05-07 11:09 | 55.81317 | -3.98089 | 6764 ft | 294 kts | 344° |
| 2026-05-07 11:09 | 55.83291 | -3.98840 | 6462 ft | 293 kts | 344° |
| 2026-05-07 11:10 | 55.85275 | -3.99593 | 6138 ft | 291 kts | 344° |
| 2026-05-07 11:10 | 55.87258 | -4.00341 | 5817 ft | 289 kts | 344° |
| 2026-05-07 11:10 | 55.89199 | -4.01067 | 5491 ft | 281 kts | 344° |
| 2026-05-07 11:10 | 55.91117 | -4.01776 | 5198 ft | 275 kts | 343° |
| 2026-05-07 11:11 | 55.92960 | -4.02560 | 4862 ft | 267 kts | 334° |
| 2026-05-07 11:11 | 55.94444 | -4.04320 | 4444 ft | 251 kts | 304° |
| 2026-05-07 11:11 | 55.95220 | -4.06960 | 4042 ft | 236 kts | 282° |
| 2026-05-07 11:11 | 55.95660 | -4.09746 | 3646 ft | 232 kts | 279° |
| 2026-05-07 11:12 | 55.96068 | -4.12474 | 3512 ft | 219 kts | 279° |
| 2026-05-07 11:12 | 55.96452 | -4.14967 | 3378 ft | 202 kts | 279° |
| 2026-05-07 11:12 | 55.96580 | -4.17299 | 3213 ft | 178 kts | 257° |
| 2026-05-07 11:12 | 55.96456 | -4.19424 | 3056 ft | 169 kts | 258° |
| 2026-05-07 11:13 | 55.96363 | -4.21523 | 2889 ft | 166 kts | 259° |
| 2026-05-07 11:13 | 55.96266 | -4.23550 | 2755 ft | 167 kts | 259° |
| 2026-05-07 11:13 | 55.96143 | -4.25650 | 2550 ft | 173 kts | 252° |
| 2026-05-07 11:13 | 55.95574 | -4.27435 | 2332 ft | 163 kts | 224° |
| 2026-05-07 11:14 | 55.94841 | -4.28916 | 2077 ft | 154 kts | 226° |
| 2026-05-07 11:14 | 55.94160 | -4.30281 | 1872 ft | 142 kts | 224° |
| 2026-05-07 11:14 | 55.93494 | -4.31544 | 1715 ft | 142 kts | 223° |
| 2026-05-07 11:14 | 55.92815 | -4.32816 | 1498 ft | 140 kts | 223° |
| 2026-05-07 11:15 | 55.92155 | -4.34048 | 1312 ft | 139 kts | 224° |
| 2026-05-07 11:15 | 55.91488 | -4.35292 | 1112 ft | 140 kts | 223° |
| 2026-05-07 11:15 | 55.90812 | -4.36557 | 941 ft | 140 kts | 223° |
| 2026-05-07 11:15 | 55.90140 | -4.37810 | 648 ft | 140 kts | 223° |
| 2026-05-07 11:16 | 55.89457 | -4.39110 | 510 ft | 147 kts | 223° |
| 2026-05-07 11:16 | 55.88742 | -4.40446 | 324 ft | 150 kts | 223° |
| 2026-05-07 11:16 | 55.88070 | -4.41730 | 151 ft | 134 kts | 220° |
| 2026-05-07 11:16 | 55.87438 | -4.42879 | 29 ft | 123 kts | 224° |
| 2026-05-07 11:17 | 55.86988 | -4.43717 | 28 ft | 63 kts | 226° |
| 2026-05-07 11:17 | 55.86823 | -4.44025 | 28 ft | 17 kts | 227° |
| 2026-05-07 11:17 | 55.86742 | -4.44176 | 28 ft | 17 kts | 226° |
| 2026-05-07 11:17 | 55.86657 | -4.44271 | 28 ft | 12 kts | 173° |
| 2026-05-07 11:18 | 55.86620 | -4.44182 | 28 ft | 9 kts | 95° |
| 2026-05-07 11:18 | 55.86619 | -4.44100 | 28 ft | 3 kts | 90° |
| 2026-05-07 11:18 | 55.86619 | -4.44035 | 28 ft | 5 kts | 90° |
| 2026-05-07 11:18 | 55.86619 | -4.44034 | 28 ft | 0 kts | 90° |
| 2026-05-07 11:19 | 55.86625 | -4.43971 | 28 ft | 9 kts | 61° |
| 2026-05-07 11:19 | 55.86675 | -4.43866 | 28 ft | 13 kts | 47° |
| 2026-05-07 11:19 | 55.86732 | -4.43735 | 28 ft | 13 kts | 66° |
| 2026-05-07 11:19 | 55.86718 | -4.43627 | 28 ft | 11 kts | 144° |
| 2026-05-07 11:20 | 55.86640 | -4.43578 | 28 ft | 10 kts | 163° |
| 2026-05-07 11:20 | 55.86567 | -4.43540 | 28 ft | 8 kts | 164° |
| 2026-05-07 11:20 | 55.86533 | -4.43575 | 28 ft | 8 kts | 250° |
| 2026-05-07 11:20 | 55.86522 | -4.43641 | 28 ft | 6 kts | 254° |
| 2026-05-07 11:21 | 55.86518 | -4.43669 | 28 ft | 1 kts | 253° |
| 2026-05-07 11:21 | 55.86517 | -4.43675 | 28 ft | 0 kts | 254° |